createdAt,value
2023-11-21T00:01:39.224Z,3445.67
2023-11-21T00:04:06.726Z,3446.25
2023-11-21T00:06:33.959Z,3448.20
2023-11-21T00:09:01.283Z,3464.00
2023-11-21T00:11:30.531Z,3460.80
2023-11-21T00:13:57.417Z,3494.75
2023-11-21T00:16:26.286Z,3469.20
2023-11-21T00:18:53.744Z,3462.25
2023-11-21T00:21:21.177Z,3471.25
2023-11-21T00:23:48.579Z,3453.25
2023-11-21T00:26:22.075Z,3464.67
2023-11-21T00:28:51.442Z,3460.50
2023-11-21T00:31:19.051Z,3507.25
2023-11-21T00:33:49.062Z,3469.25
2023-11-21T00:36:17.061Z,3491.25
2023-11-21T00:38:44.693Z,3474.80
2023-11-21T00:41:11.976Z,3484.20
2023-11-21T00:43:39.932Z,3464.00
2023-11-21T00:46:08.555Z,3476.20
2023-11-21T00:48:36.031Z,3474.00
2023-11-21T00:51:03.994Z,3474.50
2023-11-21T00:53:32.023Z,3487.75
2023-11-21T00:55:59.840Z,3487.50
2023-11-21T00:58:27.751Z,3542.00
2023-11-21T01:00:55.414Z,3476.25
2023-11-21T01:03:24.221Z,3482.25
2023-11-21T01:05:51.329Z,3053.50
2023-11-21T01:08:18.820Z,3495.40
2023-11-21T01:10:46.329Z,3484.00
2023-11-21T01:13:14.292Z,3498.25
2023-11-21T01:15:41.724Z,3478.50
2023-11-21T01:18:11.577Z,3517.33
2023-11-21T01:20:43.591Z,3487.50
2023-11-21T01:23:11.890Z,3132.50
2023-11-21T01:25:39.549Z,3305.50
2023-11-21T01:28:07.569Z,3476.25
2023-11-21T01:30:34.972Z,3500.00
2023-11-21T01:33:02.821Z,3534.50
2023-11-21T01:35:33.509Z,3525.50
2023-11-21T01:38:04.862Z,3505.75
2023-11-21T01:40:32.406Z,2572.33
2023-11-21T01:42:59.840Z,3494.75
2023-11-21T01:45:26.593Z,3505.25
2023-11-21T01:47:56.348Z,3487.00
2023-11-21T01:50:24.658Z,3498.25
2023-11-21T01:52:53.018Z,3489.50
2023-11-21T01:55:27.528Z,3408.50
2023-11-21T01:57:56.826Z,3240.75
2023-11-21T02:00:24.422Z,3499.75
2023-11-21T02:02:51.275Z,3493.67
2023-11-21T02:05:20.121Z,3483.67
2023-11-21T02:07:48.747Z,3503.00
2023-11-21T02:10:16.515Z,3356.25
2023-11-21T02:12:45.920Z,3534.50
2023-11-21T02:15:14.782Z,3491.25
2023-11-21T02:17:42.682Z,3503.80
2023-11-21T02:20:11.441Z,3494.50
2023-11-21T02:22:41.807Z,3474.80
2023-11-21T02:25:13.283Z,3508.00
2023-11-21T02:27:40.905Z,3509.40
2023-11-21T02:30:09.784Z,3494.75
2023-11-21T02:32:47.927Z,3509.00
2023-11-21T02:35:16.605Z,3536.50
2023-11-21T02:37:43.942Z,3542.50
2023-11-21T02:40:13.262Z,3480.00
2023-11-21T02:42:41.893Z,3538.75
2023-11-21T02:45:09.617Z,3566.50
2023-11-21T02:47:37.193Z,3477.80
2023-11-21T02:50:05.859Z,3496.50
2023-11-21T02:52:33.261Z,3480.00
2023-11-21T02:55:00.675Z,3476.25
2023-11-21T02:57:29.850Z,3484.00
2023-11-21T02:59:57.432Z,3491.00
2023-11-21T03:02:25.046Z,3492.75
2023-11-21T03:04:52.850Z,3484.20
2023-11-21T03:07:20.182Z,3514.25
2023-11-21T03:09:48.039Z,3486.80
2023-11-21T03:12:18.694Z,3555.50
2023-11-21T03:14:47.675Z,3491.25
2023-11-21T03:17:15.000Z,3501.75
2023-11-21T03:19:44.173Z,3493.00
2023-11-21T03:22:11.742Z,3493.00
2023-11-21T03:24:39.315Z,3535.00
2023-11-21T03:27:07.287Z,3557.50
2023-11-21T03:29:34.729Z,3491.25
2023-11-21T03:32:04.083Z,3496.50
2023-11-21T03:34:31.950Z,3153.75
2023-11-21T03:36:59.737Z,3493.00
2023-11-21T03:39:27.476Z,3498.25
2023-11-21T03:41:55.366Z,3514.00
2023-11-21T03:44:22.667Z,3496.80
2023-11-21T03:46:50.509Z,3509.00
2023-11-21T03:49:20.465Z,3500.00
2023-11-21T03:51:47.872Z,3521.75
2023-11-21T03:54:15.201Z,3505.40
2023-11-21T03:56:43.571Z,3503.50
2023-11-21T03:59:11.674Z,3505.25
2023-11-21T04:01:39.047Z,3545.75
2023-11-21T04:04:09.559Z,3538.25
2023-11-21T04:06:38.561Z,3522.25
2023-11-21T04:09:06.513Z,3520.25
2023-11-21T04:11:34.232Z,3505.25
2023-11-21T04:14:01.565Z,3494.20
2023-11-21T04:16:29.175Z,3206.00
2023-11-21T04:18:57.110Z,3161.25
2023-11-21T04:21:24.878Z,3512.75
2023-11-21T04:23:53.170Z,3510.50
2023-11-21T04:26:20.941Z,3540.75
2023-11-21T04:28:48.597Z,3167.40
2023-11-21T04:31:15.460Z,3550.00
2023-11-21T04:33:43.490Z,3540.50
2023-11-21T04:36:11.375Z,3511.25
2023-11-21T04:38:38.754Z,3186.75
2023-11-21T04:41:09.168Z,3534.50
2023-11-21T04:43:36.740Z,3362.00
2023-11-21T04:46:04.487Z,3196.50
2023-11-21T04:48:31.912Z,3298.75
2023-11-21T04:50:59.864Z,3183.00
2023-11-21T04:53:30.750Z,3594.75
2023-11-21T04:56:01.245Z,3549.50
2023-11-21T04:58:30.866Z,3512.50
2023-11-21T05:00:58.972Z,3529.00
2023-11-21T05:03:26.401Z,3540.00
2023-11-21T05:05:54.142Z,3515.80
2023-11-21T05:08:21.804Z,3502.40
2023-11-21T05:10:49.675Z,3522.25
2023-11-21T05:13:20.385Z,3532.75
2023-11-21T05:15:49.477Z,3522.25
2023-11-21T05:18:17.213Z,3533.00
2023-11-21T05:20:45.119Z,3527.50
2023-11-21T05:23:13.268Z,3564.50
2023-11-21T05:25:48.017Z,3538.25
2023-11-21T05:28:16.583Z,3544.25
2023-11-21T05:30:48.198Z,3542.00
2023-11-21T05:33:16.905Z,3534.60
2023-11-21T05:35:44.774Z,3183.25
2023-11-21T05:38:12.031Z,3557.40
2023-11-21T05:40:40.189Z,3548.00
2023-11-21T05:43:10.531Z,3387.25
2023-11-21T05:45:38.209Z,3520.40
2023-11-21T05:48:07.303Z,3524.00
2023-11-21T05:50:35.565Z,3581.50
2023-11-21T05:53:02.952Z,3209.00
2023-11-21T05:55:30.844Z,3551.50
2023-11-21T05:57:58.700Z,3544.25
2023-11-21T06:00:27.187Z,3549.50
2023-11-21T06:02:56.610Z,3544.25
2023-11-21T06:05:26.895Z,3549.75
2023-11-21T06:07:56.669Z,3545.75
2023-11-21T06:10:25.710Z,3196.00
2023-11-21T06:12:53.831Z,3559.25
2023-11-21T06:15:21.970Z,3527.50
2023-11-21T06:17:50.300Z,3549.50
2023-11-21T06:20:17.963Z,3534.50
2023-11-21T06:22:49.611Z,3007.50
2023-11-21T06:25:17.384Z,3199.50
2023-11-21T06:27:45.420Z,3545.00
2023-11-21T06:30:13.499Z,3550.00
2023-11-21T06:32:41.552Z,3242.75
2023-11-21T06:35:10.064Z,3596.75
2023-11-21T06:37:40.758Z,3568.50
2023-11-21T06:40:10.522Z,3594.75
2023-11-21T06:42:41.331Z,3459.25
2023-11-21T06:45:10.274Z,3574.00
2023-11-21T06:47:37.916Z,3214.25
2023-11-21T06:50:06.359Z,3592.75
2023-11-21T06:52:34.185Z,3606.75
2023-11-21T06:55:03.045Z,2933.50
2023-11-21T06:57:32.924Z,3604.75
2023-11-21T07:00:00.926Z,3581.50
2023-11-21T07:02:28.757Z,3219.00
2023-11-21T07:04:56.283Z,3544.25
2023-11-21T07:07:24.380Z,3574.50
2023-11-21T07:09:52.108Z,3276.00
2023-11-21T07:12:19.495Z,3446.25
2023-11-21T07:14:48.484Z,3594.75
2023-11-21T07:17:16.440Z,3567.67
2023-11-21T07:19:44.262Z,3272.50
2023-11-21T07:22:14.933Z,3551.00
2023-11-21T07:24:43.813Z,3536.50
2023-11-21T07:27:11.625Z,3534.50
2023-11-21T07:29:41.831Z,3425.75
2023-11-21T07:32:11.308Z,3526.00
2023-11-21T07:34:38.944Z,3514.25
2023-11-21T07:37:05.691Z,3565.00
2023-11-21T07:39:33.454Z,3505.40
2023-11-21T07:42:01.309Z,3534.67
2023-11-21T07:44:29.020Z,3271.50
2023-11-21T07:46:56.999Z,3507.67
2023-11-21T07:49:28.979Z,3503.00
2023-11-21T07:51:56.408Z,3522.67
2023-11-21T07:54:24.380Z,3501.00
2023-11-21T07:56:51.688Z,3501.75
2023-11-21T07:59:18.388Z,3549.50
2023-11-21T08:01:46.388Z,3505.40
2023-11-21T08:04:16.575Z,3160.25
2023-11-21T08:06:45.713Z,3495.40
2023-11-21T08:09:13.332Z,3498.33
2023-11-21T08:11:40.893Z,2796.25
2023-11-21T08:14:08.600Z,3484.20
2023-11-21T08:16:35.953Z,3507.25
2023-11-21T08:19:02.789Z,3500.50
2023-11-21T08:21:30.712Z,3489.25
2023-11-21T08:24:00.165Z,3534.50
2023-11-21T08:26:29.934Z,3181.75
2023-11-21T08:28:58.208Z,3489.25
2023-11-21T08:31:27.004Z,3527.50
2023-11-21T08:33:53.839Z,3507.67
2023-11-21T08:36:21.697Z,3482.25
2023-11-21T08:38:49.389Z,3500.67
2023-11-21T08:41:18.844Z,3503.00
2023-11-21T08:43:46.156Z,3501.75
2023-11-21T08:46:13.431Z,3491.33
2023-11-21T08:48:42.870Z,3532.33
2023-11-21T08:51:11.872Z,3483.67
2023-11-21T08:53:39.717Z,3551.75
2023-11-21T08:56:08.853Z,3494.50
2023-11-21T08:58:37.731Z,3505.25
2023-11-21T09:01:06.627Z,3503.50
2023-11-21T09:03:34.487Z,2793.50
2023-11-21T09:06:02.330Z,3488.67
2023-11-21T09:08:29.936Z,3478.67
2023-11-21T09:10:56.924Z,3478.50
2023-11-21T09:13:24.968Z,3476.25
2023-11-21T09:15:54.585Z,3516.25
2023-11-21T09:18:21.385Z,3476.25
2023-11-21T09:20:48.145Z,3303.25
2023-11-21T09:23:16.005Z,3495.40
2023-11-21T09:25:42.779Z,3498.20
2023-11-21T09:28:09.503Z,3484.00
2023-11-21T09:30:37.201Z,3332.25
2023-11-21T09:33:05.559Z,3469.20
2023-11-21T09:35:32.296Z,3478.50
2023-11-21T09:37:59.049Z,2204.00
2023-11-21T09:40:26.246Z,3216.40
2023-11-21T09:42:56.813Z,3136.00
2023-11-21T09:45:27.911Z,2993.00
2023-11-21T09:47:55.384Z,2803.80
2023-11-21T09:50:25.147Z,3489.50
2023-11-21T09:52:59.876Z,3481.75
2023-11-21T09:55:28.734Z,3482.20
2023-11-21T09:57:57.926Z,3477.80
2023-11-21T10:00:25.393Z,3476.25
2023-11-21T10:02:53.526Z,3488.20
2023-11-21T10:05:21.180Z,3462.20
2023-11-21T10:07:51.413Z,3533.00
2023-11-21T10:10:20.660Z,3476.25
2023-11-21T10:12:51.137Z,3503.50
2023-11-21T10:15:19.771Z,3397.40
2023-11-21T10:17:49.647Z,3409.00
2023-11-21T10:20:18.376Z,3464.00
2023-11-21T10:22:46.154Z,2821.40
2023-11-21T10:25:14.716Z,3400.00
2023-11-21T10:27:42.369Z,3462.20
2023-11-21T10:30:09.965Z,3465.00
2023-11-21T10:32:37.305Z,2944.20
2023-11-21T10:35:05.821Z,2774.25
2023-11-21T10:37:33.406Z,2031.40
2023-11-21T10:40:01.245Z,1844.20
2023-11-21T10:42:30.395Z,1781.60
2023-11-21T10:44:57.319Z,2772.80
2023-11-21T10:47:24.292Z,915.00
2023-11-21T10:49:52.131Z,1371.40
2023-11-21T10:52:20.851Z,230.00
2023-11-21T10:54:47.918Z,432.00
2023-11-21T10:57:19.616Z,162.75
2023-11-21T10:59:49.089Z,71.50
2023-11-21T11:02:24.679Z,56.40
2023-11-21T11:04:53.975Z,43.00
2023-11-21T11:07:22.605Z,47.20
2023-11-21T11:09:50.445Z,40.00
2023-11-21T11:12:17.864Z,41.25
2023-11-21T11:14:44.737Z,30.40
2023-11-21T11:17:15.263Z,35.00
2023-11-21T11:19:42.168Z,1067.75
2023-11-21T11:22:26.215Z,31.00
2023-11-21T11:25:12.521Z,288.00
2023-11-21T11:27:50.423Z,12.25
2023-11-21T11:30:31.951Z,16.75
2023-11-21T11:33:10.408Z,31.00
2023-11-21T11:35:51.281Z,32.25
2023-11-21T11:38:19.369Z,3.25
2023-11-21T11:40:47.329Z,5.25
2023-11-21T11:43:14.246Z,17.75
2023-11-21T11:45:42.593Z,15.50
2023-11-21T11:48:12.725Z,1.50
2023-11-21T11:51:01.757Z,18.00
2023-11-21T11:53:36.349Z,4.25
2023-11-21T11:56:24.912Z,11.25
2023-11-21T11:58:52.895Z,10.00
2023-11-21T12:01:20.376Z,12.25
2023-11-21T12:04:29.990Z,31.50
2023-11-21T12:06:56.745Z,25.00
2023-11-21T12:09:24.266Z,2.75
2023-11-21T12:11:51.848Z,0.25
2023-11-21T12:14:19.156Z,0.50
2023-11-21T12:16:46.314Z,1.00
2023-11-21T12:19:15.329Z,1.00
2023-11-21T12:21:42.359Z,2.75
2023-11-21T12:24:09.516Z,3.25
2023-11-21T12:26:36.466Z,1.00
2023-11-21T12:29:03.392Z,1.00
2023-11-21T12:31:30.237Z,1.00
2023-11-21T12:33:58.278Z,1.00
2023-11-21T12:36:27.061Z,0.00
2023-11-21T12:38:53.772Z,0.50
2023-11-21T12:41:21.057Z,0.75
2023-11-21T12:43:47.807Z,0.75
2023-11-21T12:46:15.945Z,2.75
2023-11-21T12:48:43.529Z,2.00
2023-11-21T12:51:10.834Z,2.50
2023-11-21T12:53:39.633Z,1.75
2023-11-21T12:56:08.743Z,1.00
2023-11-21T12:58:35.460Z,3.00
2023-11-21T13:01:02.464Z,3.25
2023-11-21T13:03:29.677Z,1.00
2023-11-21T13:05:56.852Z,1.00
2023-11-21T13:08:26.243Z,1.25
2023-11-21T13:10:58.540Z,0.00
2023-11-21T13:13:29.934Z,1.00
2023-11-21T13:15:58.174Z,2.00
2023-11-21T13:18:25.177Z,1.25
2023-11-21T13:20:53.636Z,1.75
2023-11-21T13:23:20.344Z,3.50
2023-11-21T13:25:54.401Z,28.00
2023-11-21T13:28:30.392Z,14.33
2023-11-21T13:30:57.149Z,7.00
2023-11-21T13:33:23.966Z,1.00
2023-11-21T13:35:51.251Z,1.25
2023-11-21T13:38:19.739Z,0.75
2023-11-21T13:40:49.527Z,1.75
2023-11-21T13:43:18.122Z,0.50
2023-11-21T13:45:46.705Z,1.25
2023-11-21T13:48:14.632Z,1.00
2023-11-21T13:50:42.876Z,1.50
2023-11-21T13:53:09.611Z,1.50
2023-11-21T13:55:36.411Z,2.75
2023-11-21T13:58:04.339Z,1.75
2023-11-21T14:00:31.226Z,2.00
2023-11-21T14:03:00.199Z,1.00
2023-11-21T14:05:31.787Z,1.25
2023-11-21T14:07:58.817Z,3.25
2023-11-21T14:10:26.484Z,25.00
2023-11-21T14:12:54.342Z,1.50
2023-11-21T14:15:21.648Z,1.75
2023-11-21T14:17:49.075Z,2.00
2023-11-21T14:20:18.311Z,1.25
2023-11-21T14:22:45.245Z,31.00
2023-11-21T14:25:13.053Z,35.00
2023-11-21T14:27:39.803Z,42.50
2023-11-21T14:30:08.510Z,0.50
2023-11-21T14:32:35.475Z,1.00
2023-11-21T14:35:02.809Z,1.75
2023-11-21T14:37:31.573Z,1.00
2023-11-21T14:39:59.870Z,1.25
2023-11-21T14:42:27.582Z,1.00
2023-11-21T14:44:54.320Z,0.75
2023-11-21T14:47:21.671Z,0.50
2023-11-21T14:49:49.309Z,2.50
2023-11-21T14:52:16.496Z,4.25
2023-11-21T14:54:45.686Z,3.50
2023-11-21T14:57:14.251Z,3.00
2023-11-21T14:59:45.851Z,1.00
2023-11-21T15:02:13.050Z,1.00
2023-11-21T15:04:44.069Z,1.50
2023-11-21T15:07:13.084Z,2.25
2023-11-21T15:09:40.602Z,1.25
2023-11-21T15:12:09.998Z,1.25
2023-11-21T15:14:38.252Z,1.00
2023-11-21T15:17:06.181Z,1.25
2023-11-21T15:19:42.830Z,3.00
2023-11-21T15:22:10.778Z,2.25
2023-11-21T15:24:38.327Z,3.00
2023-11-21T15:27:06.161Z,3.00
2023-11-21T15:29:34.288Z,2.00
2023-11-21T15:32:01.035Z,2.00
2023-11-21T15:34:27.861Z,1.50
2023-11-21T15:36:55.298Z,0.75
2023-11-21T15:39:22.143Z,1.50
2023-11-21T15:41:49.801Z,0.50
2023-11-21T15:44:17.064Z,2.00
2023-11-21T15:46:45.784Z,3.75
2023-11-21T15:49:13.748Z,4.50
2023-11-21T15:51:44.797Z,4.00
2023-11-21T15:54:12.356Z,4.25
2023-11-21T15:56:40.121Z,3.75
2023-11-21T15:59:07.414Z,3.75
2023-11-21T16:01:34.154Z,4.00
2023-11-21T16:04:02.887Z,5.33
2023-11-21T16:06:29.690Z,6.67
2023-11-21T16:08:56.563Z,11.00
2023-11-21T16:11:24.188Z,11.00
2023-11-21T16:13:50.963Z,11.00
2023-11-21T16:16:22.270Z,6.50
2023-11-21T16:18:49.534Z,9.50
2023-11-21T16:21:17.967Z,8.25
2023-11-21T16:23:45.493Z,12.75
2023-11-21T16:26:16.389Z,9.25
2023-11-21T16:28:43.410Z,10.00
2023-11-21T16:31:10.990Z,15.00
2023-11-21T16:33:39.129Z,16.25
2023-11-21T16:36:06.292Z,24.25
2023-11-21T16:38:39.129Z,13.25
2023-11-21T16:41:06.721Z,13.00
2023-11-21T16:43:33.570Z,17.50
2023-11-21T16:46:01.708Z,12.00
2023-11-21T16:48:28.489Z,40.25
2023-11-21T16:50:55.241Z,50.33
2023-11-21T16:53:22.987Z,11.25
2023-11-21T16:55:51.107Z,14.25
2023-11-21T16:58:17.817Z,9.75
2023-11-21T17:00:44.795Z,8.50
2023-11-21T17:03:11.574Z,8.00
2023-11-21T17:05:39.098Z,18.75
2023-11-21T17:08:06.151Z,38.67
2023-11-21T17:10:33.345Z,45.00
2023-11-21T17:13:01.520Z,48.00
2023-11-21T17:15:29.297Z,41.67
2023-11-21T17:17:56.413Z,40.67
2023-11-21T17:20:23.373Z,39.67
2023-11-21T17:22:50.272Z,45.00
2023-11-21T17:25:17.914Z,39.00
2023-11-21T17:27:44.733Z,37.00
2023-11-21T17:30:16.458Z,33.00
2023-11-21T17:32:43.876Z,39.33
2023-11-21T17:35:10.861Z,41.67
2023-11-21T17:37:38.708Z,36.00
2023-11-21T17:40:07.223Z,44.33
2023-11-21T17:42:34.144Z,30.33
2023-11-21T17:45:01.653Z,33.67
2023-11-21T17:47:30.132Z,32.00
2023-11-21T17:49:58.555Z,35.33
2023-11-21T17:52:25.372Z,42.00
2023-11-21T17:54:53.397Z,38.33
2023-11-21T17:57:20.986Z,53.75
2023-11-21T17:59:48.425Z,53.00
2023-11-21T18:02:15.222Z,48.00
2023-11-21T18:04:43.555Z,55.00
2023-11-21T18:07:11.122Z,54.75
2023-11-21T18:09:39.216Z,59.00
2023-11-21T18:12:08.073Z,51.50
2023-11-21T18:14:34.784Z,57.67
2023-11-21T18:17:02.272Z,66.60
2023-11-21T18:19:29.020Z,70.25
2023-11-21T18:21:57.175Z,79.00
2023-11-21T18:24:24.439Z,67.00
2023-11-21T18:26:51.308Z,68.25
2023-11-21T18:29:18.104Z,62.25
2023-11-21T18:31:45.583Z,59.33
2023-11-21T18:34:12.505Z,71.25
2023-11-21T18:36:40.685Z,82.25
2023-11-21T18:39:08.899Z,84.75
2023-11-21T18:41:35.780Z,78.50
2023-11-21T18:44:02.690Z,52.67
2023-11-21T18:46:36.924Z,49.00
2023-11-21T18:49:07.212Z,19.67
2023-11-21T18:51:35.039Z,42.67
2023-11-21T18:54:01.864Z,45.33
2023-11-21T18:56:30.806Z,43.33
2023-11-21T18:58:59.718Z,59.00
2023-11-21T19:01:31.369Z,73.50
2023-11-21T19:03:59.071Z,65.75
2023-11-21T19:06:27.141Z,68.00
2023-11-21T19:08:55.076Z,64.25
2023-11-21T19:11:22.487Z,70.50
2023-11-21T19:13:50.911Z,70.75
2023-11-21T19:16:18.567Z,75.00
2023-11-21T19:18:46.608Z,82.75
2023-11-21T19:21:14.993Z,86.75
2023-11-21T19:23:43.144Z,102.00
2023-11-21T19:26:10.657Z,123.20
2023-11-21T19:28:38.070Z,110.75
2023-11-21T19:31:07.445Z,57.00
2023-11-21T19:33:34.439Z,106.60
2023-11-21T19:36:02.656Z,105.40
2023-11-21T19:38:29.719Z,98.00
2023-11-21T19:40:57.129Z,104.25
2023-11-21T19:43:24.373Z,105.00
2023-11-21T19:45:53.058Z,469.25
2023-11-21T19:48:21.824Z,41.33
2023-11-21T19:50:49.391Z,815.80
2023-11-21T19:53:17.409Z,101.25
2023-11-21T19:55:44.967Z,107.40
2023-11-21T19:58:11.984Z,827.80
2023-11-21T20:00:38.642Z,120.60
2023-11-21T20:03:05.969Z,123.40
2023-11-21T20:05:34.893Z,1390.60
2023-11-21T20:08:03.523Z,910.25
2023-11-21T20:10:31.284Z,108.00
2023-11-21T20:13:05.369Z,765.00
2023-11-21T20:15:34.452Z,49.00
2023-11-21T20:18:02.589Z,811.00
2023-11-21T20:20:30.010Z,646.25
2023-11-21T20:22:59.307Z,401.40
2023-11-21T20:25:29.271Z,818.00
2023-11-21T20:27:57.168Z,922.00
2023-11-21T20:30:26.728Z,108.80
2023-11-21T20:32:54.849Z,126.40
2023-11-21T20:35:22.238Z,405.40
2023-11-21T20:37:49.668Z,119.80
2023-11-21T20:40:19.519Z,335.40
2023-11-21T20:42:47.053Z,570.75
2023-11-21T20:45:13.952Z,480.75
2023-11-21T20:47:42.101Z,2248.50
2023-11-21T20:50:10.656Z,3473.25
2023-11-21T20:52:37.955Z,3309.75
2023-11-21T20:55:09.615Z,3592.25
2023-11-21T20:57:42.744Z,1524.60
2023-11-21T21:00:11.195Z,116.20
2023-11-21T21:02:38.013Z,1185.40
2023-11-21T21:05:06.629Z,1393.60
2023-11-21T21:07:34.301Z,1252.00
2023-11-21T21:10:01.590Z,58.75
2023-11-21T21:12:28.993Z,84.75
2023-11-21T21:14:58.208Z,69.75
2023-11-21T21:17:25.546Z,60.25
2023-11-21T21:19:52.957Z,1605.80
2023-11-21T21:22:20.528Z,970.40
2023-11-21T21:24:48.093Z,53.33
2023-11-21T21:27:21.946Z,107.00
2023-11-21T21:29:49.300Z,108.20
2023-11-21T21:32:18.058Z,95.80
2023-11-21T21:34:45.860Z,106.75
2023-11-21T21:37:13.539Z,95.80
2023-11-21T21:39:41.281Z,92.60
2023-11-21T21:42:08.536Z,112.00
2023-11-21T21:44:36.142Z,93.60
2023-11-21T21:47:03.652Z,55.00
2023-11-21T21:49:32.732Z,50.33
2023-11-21T21:52:04.630Z,53.33
2023-11-21T21:54:31.935Z,50.67
2023-11-21T21:56:59.332Z,1895.80
2023-11-21T21:59:27.832Z,50.33
2023-11-21T22:01:55.290Z,60.75
2023-11-21T22:04:23.177Z,70.00
2023-11-21T22:06:55.115Z,77.00
2023-11-21T22:09:22.357Z,71.00
2023-11-21T22:11:49.697Z,82.20
2023-11-21T22:14:16.797Z,3681.00
2023-11-21T22:16:44.226Z,106.25
2023-11-21T22:19:11.509Z,2952.40
2023-11-21T22:21:38.452Z,763.80
2023-11-21T22:24:08.354Z,3580.60
2023-11-21T22:26:35.972Z,97.40
2023-11-21T22:29:03.442Z,3632.75
2023-11-21T22:31:30.862Z,405.40
2023-11-21T22:33:57.657Z,338.60
2023-11-21T22:36:24.373Z,117.60
2023-11-21T22:38:51.316Z,2164.00
2023-11-21T22:41:26.270Z,3535.80
2023-11-21T22:43:54.402Z,54.75
2023-11-21T22:46:21.324Z,3514.50
2023-11-21T22:48:48.128Z,2604.80
2023-11-21T22:51:15.128Z,82.40
2023-11-21T22:53:44.618Z,115.20
2023-11-21T22:56:11.895Z,3635.60
2023-11-21T22:58:40.552Z,3635.80
2023-11-21T23:01:07.342Z,3701.25
2023-11-21T23:03:34.231Z,113.20
2023-11-21T23:06:04.479Z,61.50
2023-11-21T23:08:31.263Z,89.25
2023-11-21T23:10:57.975Z,3669.00
2023-11-21T23:13:25.908Z,830.20
2023-11-21T23:15:54.123Z,70.60
2023-11-21T23:18:20.890Z,3689.00
2023-11-21T23:20:52.026Z,82.40
2023-11-21T23:23:18.794Z,83.50
2023-11-21T23:25:45.620Z,3663.40
2023-11-21T23:28:13.247Z,3667.00
2023-11-21T23:30:42.486Z,3685.80
2023-11-21T23:33:11.281Z,1977.50
2023-11-21T23:35:38.837Z,1283.25
2023-11-21T23:38:06.422Z,475.00
2023-11-21T23:40:36.087Z,380.75
2023-11-21T23:43:03.739Z,109.00
2023-11-21T23:45:31.211Z,101.80
2023-11-21T23:47:58.596Z,112.75
2023-11-21T23:50:27.998Z,299.75
2023-11-21T23:52:54.815Z,546.40
2023-11-21T23:55:23.076Z,130.50
2023-11-21T23:57:52.799Z,122.60
